createdAt,value
2017-10-26T00:00:18.105Z,80.60
2017-10-26T00:02:46.406Z,81.00
2017-10-26T00:05:13.914Z,80.90
2017-10-26T00:07:41.420Z,81.50
2017-10-26T00:10:08.961Z,80.80
2017-10-26T00:12:37.240Z,81.00
2017-10-26T00:15:04.790Z,80.80
2017-10-26T00:17:33.106Z,81.40
2017-10-26T00:20:00.614Z,81.40
2017-10-26T00:22:28.158Z,81.50
2017-10-26T00:24:55.673Z,82.00
2017-10-26T00:27:23.588Z,82.20
2017-10-26T00:29:51.097Z,82.00
2017-10-26T00:32:18.639Z,82.60
2017-10-26T00:34:46.180Z,82.80
2017-10-26T00:37:14.467Z,82.80
2017-10-26T00:39:42.019Z,82.70
2017-10-26T00:42:10.314Z,84.30
2017-10-26T00:44:37.844Z,84.20
2017-10-26T00:47:05.382Z,84.00
2017-10-26T00:49:33.272Z,84.90
2017-10-26T00:52:00.786Z,85.00
2017-10-26T00:54:28.308Z,84.90
2017-10-26T00:56:56.626Z,85.00
2017-10-26T00:59:24.137Z,85.00
2017-10-26T01:01:52.456Z,84.90
2017-10-26T01:04:19.998Z,84.80
2017-10-26T01:06:47.546Z,86.80
2017-10-26T01:09:15.063Z,87.20
2017-10-26T01:11:42.616Z,86.90
2017-10-26T01:14:10.153Z,87.20
2017-10-26T01:16:37.665Z,88.30
2017-10-26T01:19:05.994Z,86.90
2017-10-26T01:21:33.545Z,86.90
2017-10-26T01:24:01.041Z,86.70
2017-10-26T01:26:28.569Z,87.10
2017-10-26T01:28:56.116Z,87.10
2017-10-26T01:31:23.658Z,87.90
2017-10-26T01:33:51.200Z,88.10
2017-10-26T01:36:18.728Z,87.50
2017-10-26T01:38:46.220Z,87.50
2017-10-26T01:41:14.545Z,87.50
2017-10-26T01:43:42.114Z,87.30
2017-10-26T01:46:09.624Z,87.50
2017-10-26T01:48:38.141Z,88.70
2017-10-26T01:51:05.664Z,88.60
2017-10-26T01:53:33.969Z,88.10
2017-10-26T01:56:01.536Z,88.00
2017-10-26T01:58:29.044Z,87.90
2017-10-26T02:00:57.055Z,88.30
2017-10-26T02:03:24.614Z,89.50
2017-10-26T02:05:52.117Z,89.10
2017-10-26T02:08:19.643Z,89.20
2017-10-26T02:10:47.223Z,89.00
2017-10-26T02:13:15.091Z,89.20
2017-10-26T02:15:42.646Z,89.20
2017-10-26T02:18:10.205Z,89.40
2017-10-26T02:20:37.708Z,90.60
2017-10-26T02:23:05.980Z,93.50
2017-10-26T02:25:33.539Z,93.50
2017-10-26T02:28:01.841Z,94.50
2017-10-26T02:30:41.192Z,94.40
2017-10-26T02:33:08.715Z,94.60
2017-10-26T02:35:36.258Z,95.00
2017-10-26T02:38:03.773Z,95.00
2017-10-26T02:40:31.321Z,94.80
2017-10-26T02:42:58.826Z,94.00
2017-10-26T02:45:26.338Z,92.30
2017-10-26T02:47:53.894Z,91.50
2017-10-26T02:50:21.394Z,91.30
2017-10-26T02:52:48.927Z,91.30
2017-10-26T02:55:16.469Z,91.50
2017-10-26T02:57:43.997Z,90.50
2017-10-26T03:00:11.551Z,89.90
2017-10-26T03:02:39.832Z,89.60
2017-10-26T03:05:08.124Z,89.00
2017-10-26T03:07:35.664Z,89.00
2017-10-26T03:10:03.207Z,88.60
2017-10-26T03:12:30.757Z,88.60
2017-10-26T03:14:58.266Z,87.50
2017-10-26T03:17:25.856Z,88.30
2017-10-26T03:19:53.371Z,88.60
2017-10-26T03:22:21.648Z,88.50
2017-10-26T03:24:49.182Z,88.40
2017-10-26T03:27:17.463Z,90.10
2017-10-26T03:29:45.754Z,90.10
2017-10-26T03:32:14.092Z,89.60
2017-10-26T03:34:41.615Z,89.60
2017-10-26T03:37:09.158Z,89.70
2017-10-26T03:39:36.667Z,90.00
2017-10-26T03:42:04.213Z,90.30
2017-10-26T03:44:31.727Z,89.60
2017-10-26T03:47:00.074Z,88.60
2017-10-26T03:49:27.587Z,88.50
2017-10-26T03:51:55.121Z,89.00
2017-10-26T03:54:22.659Z,88.90
2017-10-26T03:56:50.936Z,89.70
2017-10-26T03:59:18.478Z,89.60
2017-10-26T04:01:45.994Z,90.10
2017-10-26T04:04:13.493Z,91.10
2017-10-26T04:06:41.038Z,93.00
2017-10-26T04:09:08.542Z,95.90
2017-10-26T04:11:36.075Z,95.80
2017-10-26T04:14:03.586Z,95.30
2017-10-26T04:16:31.095Z,94.30
2017-10-26T04:18:58.624Z,92.40
2017-10-26T04:21:26.144Z,91.70
2017-10-26T04:23:53.656Z,91.90
2017-10-26T04:26:21.198Z,92.40
2017-10-26T04:28:48.715Z,92.30
2017-10-26T04:31:17.030Z,92.90
2017-10-26T04:33:44.614Z,92.80
2017-10-26T04:36:12.161Z,92.50
2017-10-26T04:38:39.688Z,92.00
2017-10-26T04:41:07.198Z,91.60
2017-10-26T04:43:34.748Z,91.10
2017-10-26T04:46:02.289Z,91.50
2017-10-26T04:48:29.797Z,90.90
2017-10-26T04:50:58.113Z,90.40
2017-10-26T04:53:25.615Z,90.40
2017-10-26T04:55:53.157Z,90.30
2017-10-26T04:58:20.697Z,90.60
2017-10-26T05:00:48.210Z,90.70
2017-10-26T05:03:15.736Z,90.80
2017-10-26T05:05:43.270Z,90.60
2017-10-26T05:08:10.786Z,90.50
2017-10-26T05:10:39.061Z,91.80
2017-10-26T05:13:06.570Z,91.80
2017-10-26T05:15:34.111Z,91.20
2017-10-26T05:18:01.625Z,90.80
2017-10-26T05:20:29.181Z,90.80
2017-10-26T05:22:56.684Z,91.40
2017-10-26T05:25:24.774Z,92.80
2017-10-26T05:27:52.280Z,94.10
2017-10-26T05:30:20.621Z,93.20
2017-10-26T05:32:48.131Z,93.20
2017-10-26T05:35:15.657Z,92.80
2017-10-26T05:37:43.203Z,92.30
2017-10-26T05:40:10.939Z,91.90
2017-10-26T05:42:38.516Z,91.50
2017-10-26T05:45:06.031Z,91.60
2017-10-26T05:47:33.611Z,91.10
2017-10-26T05:50:01.158Z,90.40
2017-10-26T05:52:28.716Z,91.50
2017-10-26T05:54:56.219Z,91.60
2017-10-26T05:57:23.781Z,92.30
2017-10-26T05:59:51.310Z,92.80
2017-10-26T06:02:18.837Z,92.90
2017-10-26T06:04:46.348Z,93.60
2017-10-26T06:07:13.893Z,93.70
2017-10-26T06:09:42.192Z,94.00
2017-10-26T06:12:09.831Z,93.90
2017-10-26T06:14:37.376Z,94.30
2017-10-26T06:17:04.882Z,94.60
2017-10-26T06:19:32.389Z,94.10
2017-10-26T06:21:59.928Z,93.10
2017-10-26T06:24:27.450Z,93.10
2017-10-26T06:26:54.969Z,93.40
2017-10-26T06:29:22.525Z,94.30
2017-10-26T06:31:50.031Z,94.50
2017-10-26T06:34:17.576Z,94.10
2017-10-26T06:36:45.082Z,93.60
2017-10-26T06:39:12.611Z,92.70
2017-10-26T06:41:40.222Z,92.00
2017-10-26T06:44:07.733Z,92.60
2017-10-26T06:46:35.248Z,92.80
2017-10-26T06:49:02.816Z,91.40
2017-10-26T06:51:31.088Z,91.30
2017-10-26T06:53:58.596Z,91.20
2017-10-26T06:56:26.171Z,90.60
2017-10-26T06:58:53.680Z,88.80
2017-10-26T07:01:21.195Z,87.40
2017-10-26T07:03:48.732Z,86.30
2017-10-26T07:06:16.719Z,87.50
2017-10-26T07:08:44.222Z,87.40
2017-10-26T07:11:11.720Z,89.00
2017-10-26T07:13:39.305Z,89.40
2017-10-26T07:16:06.816Z,88.10
2017-10-26T07:18:34.355Z,86.40
2017-10-26T07:21:01.865Z,87.40
2017-10-26T07:23:29.454Z,87.40
2017-10-26T07:25:56.997Z,84.80
2017-10-26T07:28:24.514Z,83.60
2017-10-26T07:30:52.058Z,84.90
2017-10-26T07:33:19.575Z,84.50
2017-10-26T07:35:47.166Z,84.60
2017-10-26T07:38:14.677Z,84.80
2017-10-26T07:40:42.221Z,84.60
2017-10-26T07:43:09.793Z,85.60
2017-10-26T07:45:37.309Z,84.50
2017-10-26T07:48:05.684Z,84.20
2017-10-26T07:50:33.242Z,84.10
2017-10-26T07:53:01.527Z,83.70
2017-10-26T07:55:29.071Z,83.60
2017-10-26T07:57:57.432Z,84.10
2017-10-26T08:00:25.029Z,84.00
2017-10-26T08:02:52.554Z,83.40
2017-10-26T08:05:20.134Z,83.60
2017-10-26T08:07:47.682Z,83.70
2017-10-26T08:10:16.029Z,84.00
2017-10-26T08:12:43.602Z,84.00
2017-10-26T08:15:11.118Z,84.60
2017-10-26T08:17:38.669Z,84.10
2017-10-26T08:20:06.225Z,85.20
2017-10-26T08:22:33.737Z,83.00
2017-10-26T08:25:01.238Z,82.30
2017-10-26T08:27:28.783Z,82.20
2017-10-26T08:29:56.313Z,81.70
2017-10-26T08:32:23.867Z,81.50
2017-10-26T08:34:51.455Z,82.80
2017-10-26T08:37:18.990Z,83.80
2017-10-26T08:39:46.560Z,80.30
2017-10-26T08:42:14.217Z,80.60
2017-10-26T08:44:41.776Z,81.20
2017-10-26T08:47:09.309Z,80.00
2017-10-26T08:49:36.880Z,78.90
2017-10-26T08:52:04.449Z,78.70
2017-10-26T08:54:31.996Z,79.40
2017-10-26T08:56:59.520Z,79.10
2017-10-26T08:59:27.084Z,77.30
2017-10-26T09:01:54.674Z,76.90
2017-10-26T09:04:22.196Z,77.90
2017-10-26T09:06:49.766Z,78.90
2017-10-26T09:09:17.341Z,79.10
2017-10-26T09:11:44.853Z,78.90
2017-10-26T09:14:12.412Z,79.90
2017-10-26T09:16:40.828Z,78.30
2017-10-26T09:19:08.344Z,78.20
2017-10-26T09:21:36.687Z,78.30
2017-10-26T09:24:04.223Z,78.20
2017-10-26T09:26:31.783Z,77.50
2017-10-26T09:28:59.303Z,77.20
2017-10-26T09:31:27.623Z,76.90
2017-10-26T09:33:55.177Z,76.90
2017-10-26T09:36:22.717Z,76.70
2017-10-26T09:38:50.281Z,75.80
2017-10-26T09:41:17.797Z,75.00
2017-10-26T09:43:45.393Z,74.30
2017-10-26T09:46:12.937Z,73.10
2017-10-26T09:48:41.237Z,72.60
2017-10-26T09:51:08.784Z,72.50
2017-10-26T09:53:36.363Z,72.80
2017-10-26T09:56:03.889Z,72.80
2017-10-26T09:58:31.394Z,71.90
2017-10-26T10:00:58.958Z,71.50
2017-10-26T10:03:26.501Z,71.80
2017-10-26T10:05:54.057Z,70.70
2017-10-26T10:08:21.581Z,70.80
2017-10-26T10:10:49.128Z,69.80
2017-10-26T10:13:16.660Z,69.20
2017-10-26T10:15:44.277Z,68.90
2017-10-26T10:18:12.136Z,68.80
2017-10-26T10:20:40.493Z,68.10
2017-10-26T10:23:08.869Z,69.60
2017-10-26T10:25:36.393Z,69.60
2017-10-26T10:28:03.975Z,69.10
2017-10-26T10:30:31.475Z,68.10
2017-10-26T10:32:59.012Z,68.00
2017-10-26T10:35:27.573Z,68.80
2017-10-26T10:37:55.081Z,68.70
2017-10-26T10:40:22.616Z,69.20
2017-10-26T10:42:50.929Z,66.50
2017-10-26T10:45:18.507Z,66.50
2017-10-26T10:47:46.071Z,65.60
2017-10-26T10:50:13.576Z,65.60
2017-10-26T10:52:41.897Z,59.10
2017-10-26T10:55:09.470Z,59.10
2017-10-26T10:57:36.965Z,56.30
2017-10-26T11:00:11.009Z,50.60
2017-10-26T11:02:38.546Z,50.50
2017-10-26T11:05:06.137Z,48.70
2017-10-26T11:07:33.695Z,47.60
2017-10-26T11:10:01.213Z,46.10
2017-10-26T11:12:28.745Z,45.00
2017-10-26T11:14:56.277Z,45.60
2017-10-26T11:17:23.822Z,43.20
2017-10-26T11:19:51.324Z,42.40
2017-10-26T11:22:18.845Z,42.30
2017-10-26T11:24:46.406Z,41.00
2017-10-26T11:27:13.936Z,39.30
2017-10-26T11:29:41.440Z,39.80
2017-10-26T11:32:08.999Z,39.70
2017-10-26T11:34:36.509Z,39.00
2017-10-26T11:37:04.076Z,39.60
2017-10-26T11:39:32.348Z,40.70
2017-10-26T11:42:00.644Z,40.90
2017-10-26T11:44:28.183Z,40.80
2017-10-26T11:46:55.720Z,41.50
2017-10-26T11:49:23.249Z,42.00
2017-10-26T11:51:50.807Z,42.80
2017-10-26T11:54:18.313Z,43.10
2017-10-26T11:56:45.932Z,42.80
2017-10-26T11:59:13.453Z,43.90
2017-10-26T12:01:40.963Z,42.80
2017-10-26T12:04:08.504Z,43.70
2017-10-26T12:06:36.088Z,42.70
2017-10-26T12:09:03.596Z,43.80
2017-10-26T12:11:31.110Z,43.70
2017-10-26T12:13:58.640Z,42.60
2017-10-26T12:16:26.143Z,43.40
2017-10-26T12:18:53.681Z,42.40
2017-10-26T12:21:21.205Z,41.10
2017-10-26T12:23:48.761Z,43.00
2017-10-26T12:26:16.301Z,43.90
2017-10-26T12:28:43.815Z,43.80
2017-10-26T12:31:11.388Z,43.80
2017-10-26T12:33:38.915Z,43.70
2017-10-26T12:36:06.416Z,43.60
2017-10-26T12:38:33.984Z,42.90
2017-10-26T12:41:02.298Z,43.20
2017-10-26T12:43:29.800Z,43.20
2017-10-26T12:45:57.343Z,42.60
2017-10-26T12:48:25.177Z,41.70
2017-10-26T12:50:53.468Z,40.60
2017-10-26T12:53:21.026Z,41.70
2017-10-26T12:55:48.590Z,41.70
2017-10-26T12:58:16.144Z,41.50
2017-10-26T13:00:43.647Z,41.70
2017-10-26T13:03:11.922Z,40.50
2017-10-26T13:05:40.234Z,40.60
2017-10-26T13:08:07.790Z,40.60
2017-10-26T13:10:35.294Z,40.60
2017-10-26T13:13:02.836Z,40.30
2017-10-26T13:15:31.080Z,41.70
2017-10-26T13:20:59.397Z,39.60
2017-10-26T13:23:27.328Z,39.90
2017-10-26T13:25:55.323Z,38.80
2017-10-26T13:28:23.249Z,38.50
2017-10-26T13:30:51.750Z,38.30
2017-10-26T13:33:19.665Z,38.90
2017-10-26T13:35:47.651Z,39.30
2017-10-26T13:38:15.357Z,39.30
2017-10-26T13:40:44.038Z,40.20
2017-10-26T13:43:13.222Z,40.20
2017-10-26T13:45:41.647Z,40.00
2017-10-26T13:48:09.461Z,40.00
2017-10-26T13:55:44.025Z,40.40
2017-10-26T13:58:14.477Z,39.90
2017-10-26T14:03:16.917Z,42.70
2017-10-26T14:05:46.932Z,44.80
2017-10-26T14:08:14.695Z,46.60
2017-10-26T14:10:42.492Z,48.90
2017-10-26T14:13:10.095Z,50.50
2017-10-26T14:15:38.191Z,51.40
2017-10-26T14:18:05.845Z,52.50
2017-10-26T14:20:34.224Z,54.40
2017-10-26T14:23:02.140Z,55.40
2017-10-26T14:25:31.067Z,55.60
2017-10-26T14:27:59.025Z,55.60
2017-10-26T14:30:27.150Z,55.20
2017-10-26T14:32:55.102Z,54.70
2017-10-26T14:35:23.327Z,53.70
2017-10-26T14:37:51.356Z,53.60
2017-10-26T14:40:19.926Z,54.90
2017-10-26T14:42:48.633Z,56.10
2017-10-26T14:45:16.275Z,56.60
2017-10-26T14:47:44.376Z,57.50
2017-10-26T14:50:12.359Z,58.10
2017-10-26T14:52:40.817Z,60.10
2017-10-26T14:55:08.789Z,60.00
2017-10-26T14:57:36.746Z,61.60
2017-10-26T15:00:05.374Z,62.70
2017-10-26T15:02:34.037Z,63.70
2017-10-26T15:05:02.132Z,64.70
2017-10-26T15:07:29.849Z,66.40
2017-10-26T15:09:57.727Z,67.30
2017-10-26T15:12:25.565Z,68.10
2017-10-26T15:14:53.653Z,69.00
2017-10-26T15:17:21.379Z,69.60
2017-10-26T15:19:49.253Z,70.30
2017-10-26T15:22:18.347Z,70.10
2017-10-26T15:24:47.220Z,70.20
2017-10-26T15:27:15.964Z,68.70
2017-10-26T15:29:44.037Z,68.60
2017-10-26T15:32:11.866Z,68.00
2017-10-26T15:34:40.475Z,67.70
2017-10-26T15:37:08.520Z,67.30
2017-10-26T15:39:37.787Z,66.90
2017-10-26T15:42:05.917Z,66.90
2017-10-26T15:44:33.640Z,66.20
2017-10-26T15:47:01.375Z,66.00
2017-10-26T15:49:30.167Z,65.20
2017-10-26T15:51:57.885Z,65.60
2017-10-26T15:54:26.217Z,66.50
2017-10-26T15:56:54.126Z,67.00
2017-10-26T15:59:21.958Z,67.90
2017-10-26T16:01:50.113Z,69.10
2017-10-26T16:04:17.945Z,70.40
2017-10-26T16:06:45.763Z,72.00
2017-10-26T16:09:13.419Z,72.00
2017-10-26T16:11:41.093Z,73.60
2017-10-26T16:14:09.126Z,74.30
2017-10-26T16:16:37.747Z,74.40
2017-10-26T16:19:05.492Z,74.60
2017-10-26T16:21:33.417Z,75.30
2017-10-26T16:24:01.686Z,75.60
2017-10-26T16:26:29.825Z,76.40
2017-10-26T16:28:57.608Z,76.60
2017-10-26T16:31:26.359Z,78.10
2017-10-26T16:33:54.402Z,78.10
2017-10-26T16:36:22.254Z,78.50
2017-10-26T16:38:49.919Z,79.00
2017-10-26T16:41:18.147Z,79.10
2017-10-26T16:43:46.481Z,79.60
2017-10-26T16:46:15.755Z,80.90
2017-10-26T16:48:43.550Z,80.80
2017-10-26T16:51:11.311Z,82.40
2017-10-26T16:53:39.426Z,81.50
2017-10-26T16:56:08.324Z,82.20
2017-10-26T16:58:36.408Z,82.60
2017-10-26T17:01:04.122Z,82.60
2017-10-26T17:03:32.311Z,83.20
2017-10-26T17:06:00.125Z,82.80
2017-10-26T17:08:27.902Z,83.00
2017-10-26T17:10:56.379Z,84.00
2017-10-26T17:13:24.474Z,83.90
2017-10-26T17:15:52.810Z,83.90
2017-10-26T17:18:20.556Z,83.20
2017-10-26T17:20:48.320Z,83.40
2017-10-26T17:23:16.345Z,83.80
2017-10-26T17:25:44.138Z,84.00
2017-10-26T17:28:12.026Z,83.80
2017-10-26T17:30:39.995Z,84.40
2017-10-26T17:33:07.746Z,84.80
2017-10-26T17:35:35.615Z,85.20
2017-10-26T17:38:03.388Z,86.20
2017-10-26T17:40:31.486Z,87.10
2017-10-26T17:42:59.257Z,86.90
2017-10-26T17:45:26.974Z,86.40
2017-10-26T17:47:54.954Z,86.60
2017-10-26T17:50:22.816Z,86.80
2017-10-26T17:52:50.472Z,87.00
2017-10-26T17:55:18.694Z,87.40
2017-10-26T17:57:46.933Z,87.90
2017-10-26T18:00:14.955Z,88.10
2017-10-26T18:02:42.882Z,87.90
2017-10-26T18:05:10.830Z,88.50
2017-10-26T18:07:39.249Z,88.80
2017-10-26T18:10:07.231Z,88.00
2017-10-26T18:12:35.449Z,87.50
2017-10-26T18:15:03.846Z,86.70
2017-10-26T18:17:31.831Z,86.80
2017-10-26T18:19:59.787Z,87.40
2017-10-26T18:22:27.849Z,87.40
2017-10-26T18:24:56.518Z,87.30
2017-10-26T18:27:25.166Z,86.70
2017-10-26T18:29:53.351Z,86.70
2017-10-26T18:32:21.485Z,86.20
2017-10-26T18:34:49.908Z,86.10
2017-10-26T18:37:17.951Z,86.60
2017-10-26T18:39:45.658Z,86.50
2017-10-26T18:42:14.164Z,86.70
2017-10-26T18:44:42.543Z,87.20
2017-10-26T18:47:10.281Z,87.40
2017-10-26T18:49:38.332Z,87.50
2017-10-26T18:52:06.215Z,87.40
2017-10-26T18:54:34.320Z,87.50
2017-10-26T18:57:02.014Z,87.10
2017-10-26T18:59:30.553Z,86.80
2017-10-26T19:01:58.868Z,86.80
2017-10-26T19:04:27.211Z,86.80
2017-10-26T19:06:54.865Z,87.00
2017-10-26T19:09:23.477Z,86.40
2017-10-26T19:11:51.809Z,86.30
2017-10-26T19:14:20.122Z,85.80
2017-10-26T19:16:48.065Z,85.30
2017-10-26T19:19:15.931Z,85.20
2017-10-26T19:21:44.991Z,85.30
2017-10-26T19:24:13.040Z,85.30
2017-10-26T19:26:41.125Z,85.10
2017-10-26T19:29:09.443Z,84.80
2017-10-26T19:31:38.253Z,85.00
2017-10-26T19:34:06.246Z,84.90
2017-10-26T19:36:34.408Z,85.20
2017-10-26T19:39:02.604Z,85.60
2017-10-26T19:41:30.558Z,85.60
2017-10-26T19:43:58.426Z,85.20
2017-10-26T19:46:26.474Z,85.10
2017-10-26T19:48:54.239Z,85.30
2017-10-26T19:51:22.259Z,85.80
2017-10-26T19:53:50.626Z,86.50
2017-10-26T19:56:19.452Z,86.60
2017-10-26T19:58:48.663Z,87.20
2017-10-26T20:01:17.962Z,87.10
2017-10-26T20:03:46.192Z,87.00
2017-10-26T20:06:13.976Z,87.20
2017-10-26T20:08:41.981Z,87.50
2017-10-26T20:11:09.842Z,88.10
2017-10-26T20:13:38.592Z,87.80
2017-10-26T20:16:07.244Z,87.80
2017-10-26T20:18:35.163Z,87.80
2017-10-26T20:21:03.968Z,88.50
2017-10-26T20:23:32.482Z,88.90
2017-10-26T20:26:00.633Z,88.90
2017-10-26T20:28:29.101Z,89.30
2017-10-26T20:30:57.751Z,89.60
2017-10-26T20:33:25.733Z,89.50
2017-10-26T20:35:53.468Z,89.90
2017-10-26T20:38:22.207Z,90.10
2017-10-26T20:40:51.146Z,89.20
2017-10-26T20:43:19.452Z,89.20
2017-10-26T20:45:47.088Z,89.20
2017-10-26T20:48:15.279Z,89.00
2017-10-26T20:50:43.231Z,88.80
2017-10-26T20:53:10.839Z,88.90
2017-10-26T20:55:39.081Z,88.20
2017-10-26T20:58:06.876Z,87.70
2017-10-26T21:00:35.385Z,87.10
2017-10-26T21:03:03.665Z,86.80
2017-10-26T21:05:31.534Z,86.70
2017-10-26T21:07:59.415Z,87.20
2017-10-26T21:10:27.604Z,87.10
2017-10-26T21:12:55.275Z,86.80
2017-10-26T21:15:23.511Z,86.60
2017-10-26T21:17:51.497Z,86.20
2017-10-26T21:20:19.499Z,86.00
2017-10-26T21:22:47.463Z,85.70
2017-10-26T21:25:15.624Z,85.60
2017-10-26T21:27:43.410Z,85.70
2017-10-26T21:30:11.336Z,85.80
2017-10-26T21:32:39.421Z,85.60
2017-10-26T21:35:07.528Z,85.50
2017-10-26T21:37:36.542Z,85.70
2017-10-26T21:40:05.359Z,85.70
2017-10-26T21:42:33.540Z,86.20
2017-10-26T21:45:01.843Z,86.00
2017-10-26T21:47:31.442Z,86.10
2017-10-26T21:49:59.862Z,86.10
2017-10-26T21:52:28.668Z,86.80
2017-10-26T21:54:57.001Z,86.70
2017-10-26T21:57:24.907Z,86.90
2017-10-26T21:59:52.998Z,87.10
2017-10-26T22:02:21.069Z,87.10
2017-10-26T22:04:48.815Z,86.60
2017-10-26T22:07:17.152Z,86.50
2017-10-26T22:09:45.007Z,86.50
2017-10-26T22:12:12.696Z,86.70
2017-10-26T22:14:41.756Z,87.80
2017-10-26T22:17:09.585Z,87.70
2017-10-26T22:19:37.690Z,88.70
2017-10-26T22:22:05.682Z,88.40
2017-10-26T22:24:34.587Z,88.40
2017-10-26T22:27:02.972Z,87.50
2017-10-26T22:29:31.748Z,87.20
2017-10-26T22:32:00.085Z,87.10
2017-10-26T22:34:27.979Z,87.70
2017-10-26T22:36:56.132Z,87.50
2017-10-26T22:39:23.916Z,88.00
2017-10-26T22:41:52.800Z,88.00
2017-10-26T22:44:20.720Z,88.00
2017-10-26T22:46:48.998Z,87.80
2017-10-26T22:49:17.196Z,88.20
2017-10-26T22:51:45.257Z,88.00
2017-10-26T22:54:13.051Z,87.80
2017-10-26T22:56:41.176Z,87.80
2017-10-26T22:59:09.479Z,88.70
2017-10-26T23:01:37.534Z,88.70
2017-10-26T23:04:05.442Z,89.30
2017-10-26T23:06:33.625Z,89.50
2017-10-26T23:09:01.488Z,89.90
2017-10-26T23:11:29.292Z,89.80
2017-10-26T23:13:57.580Z,89.60
2017-10-26T23:16:25.360Z,89.50
2017-10-26T23:18:53.872Z,88.70
2017-10-26T23:21:22.097Z,88.70
2017-10-26T23:23:50.242Z,89.10
2017-10-26T23:26:18.623Z,89.50
2017-10-26T23:28:47.524Z,89.00
2017-10-26T23:31:16.405Z,88.80
2017-10-26T23:33:44.253Z,88.80
2017-10-26T23:36:12.253Z,89.30
2017-10-26T23:38:40.177Z,89.40
2017-10-26T23:41:08.196Z,89.30
2017-10-26T23:43:36.862Z,89.00
2017-10-26T23:46:06.241Z,88.90
2017-10-26T23:48:34.502Z,88.40
2017-10-26T23:51:02.693Z,88.10
2017-10-26T23:53:30.684Z,87.70
2017-10-26T23:55:59.921Z,87.80
2017-10-26T23:58:27.712Z,87.60
